Terminal Aerodrome Forecast
Issued by NWS

Home | Current Version | Previous Version | Text Only | Print | Product List | Glossary On
Versions: 1 2 3 4 5 6 7 8 9 10 11 12 13 14 15 16 17 18
000
FTUS42 KMLB 081429 AAB
TAFISM
TAF AMD
KISM 081429Z 0814/0912 33007KT P6SM OVC003
     FM081500 33008KT P6SM FEW030 FEW120 SCT250
     FM090300 35011KT P6SM SCT120 BKN250=

USA.gov is the U.S. government's official web portal to all federal, state and local government web resources and services.